Terminal Aerodrome Forecast
Issued by NWS

Home | Current Version | Previous Version | Text Only | Print | Product List | Glossary On
Versions: 1 2 3 4 5 6 7 8 9 10 11 12 13
000
FTUS43 KUNR 041720
TAFGCC
TAF
KGCC 041720Z 0418/0518 18009KT P6SM SCT050
      TEMPO 0421/0501 2SM TSRA BKN020CB
     FM050200 VRB05KT P6SM BKN100=

USA.gov is the U.S. government's official web portal to all federal, state and local government web resources and services.